createdAt,value
2019-03-20T00:00:37.402Z,4.5
2019-03-20T00:01:43.578Z,4.4
2019-03-20T00:02:38.033Z,4.6
2019-03-20T00:03:37.908Z,4.5
2019-03-20T00:04:37.763Z,4.4
2019-03-20T00:05:37.735Z,4.2
2019-03-20T00:06:37.898Z,3.9
2019-03-20T00:07:38.100Z,3.6
2019-03-20T00:08:38.075Z,3.8
2019-03-20T00:09:38.345Z,4
2019-03-20T00:10:38.123Z,4.2
2019-03-20T00:11:38.268Z,4.1
2019-03-20T00:12:38.277Z,4.2
2019-03-20T00:13:38.334Z,4.4
2019-03-20T00:14:38.407Z,4.5
2019-03-20T00:15:38.388Z,4.5
2019-03-20T00:16:38.584Z,4.3
2019-03-20T00:17:38.460Z,4.5
2019-03-20T00:18:39.282Z,4.7
2019-03-20T00:19:38.546Z,4.9
2019-03-20T00:20:38.607Z,4.9
2019-03-20T00:21:39.172Z,4.8
2019-03-20T00:22:38.915Z,4.6
2019-03-20T00:23:38.788Z,4.5
2019-03-20T00:24:38.983Z,4.4
2019-03-20T00:25:38.925Z,4.4
2019-03-20T00:26:38.999Z,4.5
2019-03-20T00:27:39.428Z,4.3
2019-03-20T00:28:39.187Z,4.2
2019-03-20T00:29:39.161Z,4.4
2019-03-20T00:30:39.187Z,4.5
2019-03-20T00:31:39.302Z,4.5
2019-03-20T00:32:39.631Z,4.5
2019-03-20T00:33:39.350Z,4.6
2019-03-20T00:34:39.447Z,4.7
2019-03-20T00:35:39.573Z,4.8
2019-03-20T00:36:39.603Z,4.3
2019-03-20T00:37:39.576Z,4
2019-03-20T00:38:39.638Z,3.9
2019-03-20T00:39:39.886Z,3.9
2019-03-20T00:40:39.943Z,3.8
2019-03-20T00:41:40.083Z,3.7
2019-03-20T00:42:39.976Z,3.8
2019-03-20T00:43:39.969Z,3.9
2019-03-20T00:44:39.973Z,4
2019-03-20T00:45:40.056Z,4
2019-03-20T00:46:40.158Z,4.1
2019-03-20T00:47:40.417Z,4.3
2019-03-20T00:48:40.787Z,4.4
2019-03-20T00:49:40.573Z,4.3
2019-03-20T00:50:40.326Z,4.4
2019-03-20T00:51:40.396Z,4.1
2019-03-20T00:52:40.474Z,4.1
2019-03-20T00:53:40.540Z,4.2
2019-03-20T00:54:40.575Z,4.3
2019-03-20T00:55:12.357Z,4.3
2019-03-20T00:55:40.616Z,4.4
2019-03-20T00:56:40.672Z,4.5
2019-03-20T00:57:40.710Z,4.6
2019-03-20T00:58:40.750Z,4.6
2019-03-20T00:59:40.843Z,4.6
2019-03-20T01:00:40.942Z,4.6
2019-03-20T01:01:40.963Z,4.4
2019-03-20T01:02:41.044Z,4.3
2019-03-20T01:03:41.103Z,4.5
2019-03-20T01:04:41.157Z,4.6
2019-03-20T01:05:41.351Z,4.6
2019-03-20T01:06:41.279Z,4.6
2019-03-20T01:07:41.330Z,4.7
2019-03-20T01:08:41.375Z,4.5
2019-03-20T01:09:41.449Z,4.6
2019-03-20T01:10:41.486Z,4.6
2019-03-20T01:11:41.540Z,4.6
2019-03-20T01:12:41.559Z,4.6
2019-03-20T01:13:41.678Z,4.7
2019-03-20T01:14:41.729Z,4.6
2019-03-20T01:15:41.792Z,4.3
2019-03-20T01:16:41.834Z,4.3
2019-03-20T01:17:41.890Z,4.3
2019-03-20T01:18:41.951Z,4.4
2019-03-20T01:19:41.993Z,4.5
2019-03-20T01:20:42.060Z,4.3
2019-03-20T01:21:42.119Z,4.2
2019-03-20T01:22:42.176Z,4.3
2019-03-20T01:23:42.229Z,4.3
2019-03-20T01:24:42.308Z,4.2
2019-03-20T01:25:42.378Z,4.2
2019-03-20T01:26:42.429Z,4.3
2019-03-20T01:27:42.444Z,4.4
2019-03-20T01:28:42.514Z,4.4
2019-03-20T01:29:42.554Z,4.4
2019-03-20T01:30:42.620Z,4.4
2019-03-20T01:31:42.669Z,4.4
2019-03-20T01:32:42.754Z,4.5
2019-03-20T01:33:42.797Z,4.4
2019-03-20T01:34:43.927Z,4.4
2019-03-20T01:35:42.928Z,4.3
2019-03-20T01:36:43.001Z,4.1
2019-03-20T01:37:43.008Z,4.1
2019-03-20T01:38:43.121Z,3.9
2019-03-20T01:39:43.105Z,3.7
2019-03-20T01:40:43.135Z,3.8
2019-03-20T01:41:43.234Z,3.7
2019-03-20T01:42:43.308Z,3.7
2019-03-20T01:43:43.394Z,3.4
2019-03-20T01:44:43.398Z,3.3
2019-03-20T01:45:43.419Z,3.3
2019-03-20T01:46:43.486Z,3.2
2019-03-20T01:47:43.549Z,3.3
2019-03-20T01:48:43.629Z,3.5
2019-03-20T01:49:43.664Z,3.6
2019-03-20T01:50:43.723Z,3.8
2019-03-20T01:51:43.798Z,3.7
2019-03-20T01:52:43.864Z,3.5
2019-03-20T01:53:43.939Z,3.5
2019-03-20T01:54:44.028Z,3.6
2019-03-20T01:55:44.280Z,3.6
2019-03-20T01:56:44.110Z,3.5
2019-03-20T01:57:44.225Z,3.5
2019-03-20T01:58:44.242Z,3.8
2019-03-20T01:59:44.379Z,3.7
2019-03-20T02:00:44.362Z,3.5
2019-03-20T02:01:44.463Z,3.6
2019-03-20T02:02:44.417Z,3.5
2019-03-20T02:03:44.478Z,3.3
2019-03-20T02:04:44.569Z,3.3
2019-03-20T02:05:44.612Z,3.6
2019-03-20T02:06:44.693Z,3.6
2019-03-20T02:07:44.708Z,3.8
2019-03-20T02:08:44.839Z,3.8
2019-03-20T02:09:44.869Z,3.9
2019-03-20T02:10:44.887Z,3.9
2019-03-20T02:11:44.940Z,3.6
2019-03-20T02:12:44.983Z,3.5
2019-03-20T02:13:45.102Z,3.3
2019-03-20T02:14:45.091Z,3.2
2019-03-20T02:15:45.634Z,3.1
2019-03-20T02:16:46.422Z,3.2
2019-03-20T02:17:45.594Z,2.9
2019-03-20T02:18:45.386Z,2.8
2019-03-20T02:19:45.403Z,2.9
2019-03-20T02:20:45.461Z,3.1
2019-03-20T02:21:45.455Z,3
2019-03-20T02:22:45.537Z,3
2019-03-20T02:23:45.564Z,3
2019-03-20T02:24:45.656Z,3
2019-03-20T02:25:45.697Z,3.1
2019-03-20T02:26:45.765Z,2.9
2019-03-20T02:27:45.804Z,3
2019-03-20T02:28:45.868Z,3.2
2019-03-20T02:29:45.937Z,3.3
2019-03-20T02:30:45.979Z,3.3
2019-03-20T02:31:46.032Z,3.4
2019-03-20T02:32:46.069Z,3.6
2019-03-20T02:33:46.173Z,3.7
2019-03-20T02:34:46.189Z,3.6
2019-03-20T02:35:51.652Z,3.7
2019-03-20T02:36:46.312Z,3.7
2019-03-20T02:37:46.418Z,3.5
2019-03-20T02:38:46.430Z,3.5
2019-03-20T02:39:46.471Z,3.6
2019-03-20T02:40:46.507Z,3.7
2019-03-20T02:41:46.611Z,3.8
2019-03-20T02:42:46.711Z,3.9
2019-03-20T02:43:46.706Z,3.8
2019-03-20T02:44:46.730Z,3.5
2019-03-20T02:45:46.850Z,3.6
2019-03-20T02:46:46.931Z,3.7
2019-03-20T02:47:46.936Z,3.7
2019-03-20T02:48:46.994Z,3.8
2019-03-20T02:49:47.032Z,3.8
2019-03-20T02:50:47.086Z,3.6
2019-03-20T02:51:47.141Z,3.6
2019-03-20T02:52:47.197Z,3.6
2019-03-20T02:53:47.258Z,3.6
2019-03-20T02:54:47.304Z,3.7
2019-03-20T02:55:47.372Z,3.9
2019-03-20T02:56:47.502Z,3.9
2019-03-20T02:57:47.435Z,3.9
2019-03-20T02:58:47.541Z,3.9
2019-03-20T02:59:47.546Z,3.8
2019-03-20T03:00:47.603Z,3.6
2019-03-20T03:01:47.689Z,3.5
2019-03-20T03:02:47.728Z,3.3
2019-03-20T03:03:47.772Z,3.4
2019-03-20T03:04:47.867Z,3.5
2019-03-20T03:05:47.891Z,3.2
2019-03-20T03:06:47.941Z,3
2019-03-20T03:07:48.277Z,2.9
2019-03-20T03:08:48.002Z,2.9
2019-03-20T03:09:48.082Z,2.8
2019-03-20T03:10:48.173Z,2.8
2019-03-20T03:11:56.538Z,2.4
2019-03-20T03:12:48.227Z,2
2019-03-20T03:13:48.299Z,1.9
2019-03-20T03:14:48.351Z,1.7
2019-03-20T03:15:48.414Z,1.9
2019-03-20T03:16:48.465Z,1.9
2019-03-20T03:17:48.537Z,2
2019-03-20T03:18:48.590Z,2.2
2019-03-20T03:19:48.642Z,2.4
2019-03-20T03:20:48.742Z,2.5
2019-03-20T03:21:48.803Z,2.7
2019-03-20T03:22:48.854Z,3
2019-03-20T03:23:48.899Z,3.1
2019-03-20T03:24:48.974Z,3.3
2019-03-20T03:25:50.239Z,3.4
2019-03-20T03:26:49.051Z,3.2
2019-03-20T03:27:49.112Z,3
2019-03-20T03:28:49.163Z,3
2019-03-20T03:29:49.188Z,3
2019-03-20T03:30:49.293Z,3
2019-03-20T03:31:49.359Z,3
2019-03-20T03:32:49.415Z,2.6
2019-03-20T03:33:49.455Z,2.5
2019-03-20T03:34:49.564Z,2.2
2019-03-20T03:35:49.591Z,2
2019-03-20T03:36:49.652Z,2.1
2019-03-20T03:37:49.727Z,2.3
2019-03-20T03:38:49.793Z,2.3
2019-03-20T03:39:49.820Z,2.3
2019-03-20T03:40:49.901Z,2.2
2019-03-20T03:41:50.082Z,2.1
2019-03-20T03:42:50.041Z,2.1
2019-03-20T03:43:50.074Z,2
2019-03-20T03:44:50.210Z,1.9
2019-03-20T03:45:50.229Z,2
2019-03-20T03:46:50.307Z,1.9
2019-03-20T03:47:50.342Z,2.1
2019-03-20T03:48:50.416Z,2.1
2019-03-20T03:49:50.450Z,2.2
2019-03-20T03:50:50.483Z,2.2
2019-03-20T03:51:50.611Z,2.5
2019-03-20T03:52:50.692Z,2.4
2019-03-20T03:53:50.729Z,2.4
2019-03-20T03:54:50.790Z,2.3
2019-03-20T03:55:50.811Z,2.1
2019-03-20T03:56:59.171Z,2.1
2019-03-20T03:57:50.952Z,2
2019-03-20T03:58:50.987Z,2
2019-03-20T03:59:51.036Z,2.3
2019-03-20T04:00:51.099Z,2.2
2019-03-20T04:01:51.107Z,2
2019-03-20T04:02:51.247Z,2.4
2019-03-20T04:03:51.395Z,2.6
2019-03-20T04:04:51.408Z,2.7
2019-03-20T04:05:51.415Z,2.7
2019-03-20T04:06:51.528Z,2.7
2019-03-20T04:07:51.543Z,2.5
2019-03-20T04:08:51.661Z,2.3
2019-03-20T04:09:51.682Z,2.4
2019-03-20T04:10:51.796Z,2.5
2019-03-20T04:11:51.797Z,2.5
2019-03-20T04:12:51.976Z,2.4
2019-03-20T04:13:51.861Z,2.3
2019-03-20T04:14:52.004Z,2.2
2019-03-20T04:15:52.011Z,2.1
2019-03-20T04:16:52.046Z,2.1
2019-03-20T04:17:52.070Z,2.2
2019-03-20T04:18:52.158Z,2.5
2019-03-20T04:19:52.174Z,2.4
2019-03-20T04:20:52.289Z,2.4
2019-03-20T04:21:52.302Z,2.4
2019-03-20T04:22:52.365Z,2.3
2019-03-20T04:23:52.427Z,2.4
2019-03-20T04:24:52.468Z,2.3
2019-03-20T04:25:52.533Z,2.4
2019-03-20T04:27:00.871Z,2.6
2019-03-20T04:27:52.632Z,2.5
2019-03-20T04:28:52.731Z,2.6
2019-03-20T04:29:52.760Z,2.7
2019-03-20T04:30:52.804Z,2.7
2019-03-20T04:31:52.859Z,2.6
2019-03-20T04:32:52.932Z,2.6
2019-03-20T04:33:52.965Z,2.6
2019-03-20T04:34:53.048Z,2.8
2019-03-20T04:35:53.089Z,2.9
2019-03-20T04:36:53.124Z,2.8
2019-03-20T04:37:53.169Z,2.5
2019-03-20T04:38:53.248Z,2.4
2019-03-20T04:39:53.302Z,2.4
2019-03-20T04:40:53.484Z,2.5
2019-03-20T04:41:53.414Z,2.5
2019-03-20T04:42:53.509Z,2.4
2019-03-20T04:43:53.545Z,2.3
2019-03-20T04:44:53.619Z,2.2
2019-03-20T04:45:53.689Z,2.4
2019-03-20T04:46:53.739Z,2.3
2019-03-20T04:47:53.815Z,2.2
2019-03-20T04:48:53.870Z,2.1
2019-03-20T04:49:53.941Z,2.2
2019-03-20T04:50:53.969Z,2.1
2019-03-20T04:51:53.990Z,2.1
2019-03-20T04:52:54.065Z,1.9
2019-03-20T04:53:54.102Z,2
2019-03-20T04:54:54.130Z,2.1
2019-03-20T04:55:54.217Z,2.2
2019-03-20T04:56:58.370Z,2.1
2019-03-20T04:57:54.311Z,2.1
2019-03-20T04:58:54.349Z,2.1
2019-03-20T04:59:54.407Z,2.1
2019-03-20T05:00:54.514Z,2.1
2019-03-20T05:01:54.585Z,2.2
2019-03-20T05:02:54.655Z,2.1
2019-03-20T05:03:54.701Z,2.2
2019-03-20T05:04:54.767Z,2.3
2019-03-20T05:05:54.836Z,2.5
2019-03-20T05:06:58.990Z,2.5
2019-03-20T05:07:54.926Z,2.5
2019-03-20T05:08:54.982Z,2.5
2019-03-20T05:09:55.059Z,2.6
2019-03-20T05:10:55.206Z,2.8
2019-03-20T05:11:55.161Z,2.8
2019-03-20T05:12:55.223Z,2.8
2019-03-20T05:13:55.328Z,2.9
2019-03-20T05:14:55.373Z,2.9
2019-03-20T05:15:55.457Z,2.9
2019-03-20T05:16:55.532Z,2.9
2019-03-20T05:17:55.614Z,2.6
2019-03-20T05:18:55.658Z,2.6
2019-03-20T05:19:55.699Z,2.7
2019-03-20T05:20:55.773Z,2.5
2019-03-20T05:21:55.873Z,2.5
2019-03-20T05:22:55.879Z,2.3
2019-03-20T05:23:55.963Z,2.2
2019-03-20T05:24:56.046Z,2.1
2019-03-20T05:25:56.085Z,2.3
2019-03-20T05:26:59.945Z,2.3
2019-03-20T05:27:56.419Z,2.3
2019-03-20T05:28:56.235Z,2.3
2019-03-20T05:29:56.653Z,2.4
2019-03-20T05:30:56.334Z,2.5
2019-03-20T05:31:56.792Z,2.6
2019-03-20T05:32:56.575Z,2.6
2019-03-20T05:33:56.612Z,2.5
2019-03-20T05:34:56.700Z,2.3
2019-03-20T05:35:56.649Z,2.1
2019-03-20T05:36:56.699Z,2
2019-03-20T05:37:56.893Z,2
2019-03-20T05:38:56.849Z,2.1
2019-03-20T05:39:56.895Z,2.1
2019-03-20T05:40:56.956Z,2
2019-03-20T05:41:56.987Z,1.9
2019-03-20T05:42:57.247Z,1.9
2019-03-20T05:43:57.127Z,2
2019-03-20T05:44:57.195Z,2.2
2019-03-20T05:45:57.245Z,2
2019-03-20T05:46:57.342Z,1.7
2019-03-20T05:47:57.386Z,1.6
2019-03-20T05:48:57.415Z,1.6
2019-03-20T05:49:57.500Z,1.5
2019-03-20T05:50:57.799Z,1.4
2019-03-20T05:51:57.915Z,1.6
2019-03-20T05:52:57.618Z,1.6
2019-03-20T05:53:58.575Z,1.5
2019-03-20T05:54:58.154Z,1.6
2019-03-20T05:55:58.355Z,1.7
2019-03-20T05:56:59.152Z,1.9
2019-03-20T05:57:58.628Z,2
2019-03-20T05:58:58.077Z,2
2019-03-20T05:59:58.043Z,2.1
2019-03-20T06:00:59.318Z,2.3
2019-03-20T06:01:59.336Z,2.4
2019-03-20T06:02:59.651Z,2.6
2019-03-20T06:04:00.018Z,2.8
2019-03-20T06:05:00.021Z,2.7
2019-03-20T06:06:00.570Z,2.4
2019-03-20T06:06:58.414Z,2.2
2019-03-20T06:08:00.602Z,2
2019-03-20T06:09:00.675Z,1.9
2019-03-20T06:10:01.961Z,2
2019-03-20T06:11:01.207Z,2.1
2019-03-20T06:12:03.873Z,2.3
2019-03-20T06:12:58.971Z,2.3
2019-03-20T06:14:01.274Z,2.3
2019-03-20T06:14:59.307Z,2.2
2019-03-20T06:15:58.975Z,2.1
2019-03-20T06:17:00.542Z,2
2019-03-20T06:17:59.064Z,1.9
2019-03-20T06:19:02.240Z,1.8
2019-03-20T06:19:59.462Z,2
2019-03-20T06:20:59.308Z,2
2019-03-20T06:22:02.449Z,2
2019-03-20T06:22:59.388Z,1.9
2019-03-20T06:23:59.417Z,2
2019-03-20T06:24:59.495Z,2
2019-03-20T06:25:59.552Z,2.1
2019-03-20T06:26:59.671Z,2.2
2019-03-20T06:27:59.666Z,2.3
2019-03-20T06:28:59.750Z,2.3
2019-03-20T06:29:59.908Z,2.4
2019-03-20T06:30:59.840Z,2.4
2019-03-20T06:31:59.915Z,2.4
2019-03-20T06:33:00.037Z,2.4
2019-03-20T06:34:00.042Z,2.6
2019-03-20T06:35:00.047Z,2.7
2019-03-20T06:36:00.121Z,2.8
2019-03-20T06:37:00.514Z,2.9
2019-03-20T06:38:00.712Z,2.9
2019-03-20T06:39:00.459Z,2.8
2019-03-20T06:40:00.643Z,2.9
2019-03-20T06:41:00.519Z,2.9
2019-03-20T06:42:11.831Z,2.9
2019-03-20T06:43:00.530Z,3
2019-03-20T06:44:00.554Z,3
2019-03-20T06:45:00.571Z,3.1
2019-03-20T06:46:00.647Z,3.2
2019-03-20T06:47:00.676Z,3.2
2019-03-20T06:48:00.720Z,3.3
2019-03-20T06:49:00.787Z,3.3
2019-03-20T06:50:00.843Z,3.4
2019-03-20T06:51:00.898Z,3.4
2019-03-20T06:52:00.975Z,3.3
2019-03-20T06:53:01.017Z,3.4
2019-03-20T06:54:01.112Z,3.6
2019-03-20T06:55:01.531Z,3.4
2019-03-20T06:56:01.197Z,3.4
2019-03-20T06:57:01.225Z,3.4
2019-03-20T06:58:01.345Z,3.4
2019-03-20T06:59:01.379Z,3.5
2019-03-20T07:00:01.433Z,3.5
2019-03-20T07:01:01.483Z,3.5
2019-03-20T07:02:01.540Z,3.6
2019-03-20T07:03:01.614Z,3.7
2019-03-20T07:04:01.710Z,3.8
2019-03-20T07:05:01.771Z,3.9
2019-03-20T07:06:01.805Z,3.9
2019-03-20T07:07:01.897Z,4
2019-03-20T07:08:01.973Z,4.1
2019-03-20T07:09:02.010Z,4.4
2019-03-20T07:10:02.099Z,4.5
2019-03-20T07:11:02.140Z,4.3
2019-03-20T07:12:12.471Z,4.2
2019-03-20T07:13:02.234Z,4.2
2019-03-20T07:14:02.639Z,4.2
2019-03-20T07:15:02.327Z,4.3
2019-03-20T07:16:02.406Z,4.5
2019-03-20T07:17:02.462Z,4.6
2019-03-20T07:18:02.661Z,4.6
2019-03-20T07:19:02.708Z,4.7
2019-03-20T07:20:02.797Z,4.7
2019-03-20T07:21:02.741Z,4.8
2019-03-20T07:22:02.808Z,4.7
2019-03-20T07:23:02.886Z,4.7
2019-03-20T07:24:02.912Z,4.8
2019-03-20T07:25:03.027Z,4.7
2019-03-20T07:26:03.051Z,4.9
2019-03-20T07:27:03.119Z,5
2019-03-20T07:28:03.151Z,5.2
2019-03-20T07:29:03.272Z,5.4
2019-03-20T07:30:03.274Z,5.3
2019-03-20T07:31:14.154Z,5.5
2019-03-20T07:32:03.373Z,5.5
2019-03-20T07:33:03.433Z,5.6
2019-03-20T07:34:03.474Z,5.6
2019-03-20T07:35:03.539Z,5.7
2019-03-20T07:36:03.633Z,5.6
2019-03-20T07:37:03.847Z,5.6
2019-03-20T07:38:03.870Z,5.7
2019-03-20T07:39:03.892Z,5.8
2019-03-20T07:40:03.904Z,5.7
2019-03-20T07:41:03.908Z,5.6
2019-03-20T07:42:03.959Z,5.8
2019-03-20T07:43:08.497Z,5.8
2019-03-20T07:44:04.087Z,5.8
2019-03-20T07:45:04.573Z,5.9
2019-03-20T07:46:04.270Z,6
2019-03-20T07:47:04.336Z,5.9
2019-03-20T07:48:04.411Z,5.9
2019-03-20T07:49:04.436Z,6.3
2019-03-20T07:50:04.491Z,6.5
2019-03-20T07:51:04.561Z,6.5
2019-03-20T07:52:04.637Z,6.6
2019-03-20T07:53:04.691Z,6.8
2019-03-20T07:54:04.761Z,6.7
2019-03-20T07:55:04.942Z,6.6
2019-03-20T07:56:04.830Z,6.7
2019-03-20T07:57:04.862Z,6.7
2019-03-20T07:58:04.946Z,6.5
2019-03-20T07:59:05.026Z,6.6
2019-03-20T08:00:05.062Z,6.8
2019-03-20T08:01:05.106Z,7.2
2019-03-20T08:02:05.172Z,7.1
2019-03-20T08:03:05.230Z,7.1
2019-03-20T08:04:05.352Z,7.2
2019-03-20T08:05:05.358Z,7
2019-03-20T08:06:05.440Z,7
2019-03-20T08:07:05.476Z,6.9
2019-03-20T08:08:07.422Z,6.9
2019-03-20T08:09:05.551Z,7.1
2019-03-20T08:10:05.633Z,6.9
2019-03-20T08:11:05.769Z,7
2019-03-20T08:12:05.721Z,6.9
2019-03-20T08:13:05.774Z,15.7
2019-03-20T08:14:05.867Z,7.5
2019-03-20T08:15:05.917Z,7.8
2019-03-20T08:16:05.968Z,8
2019-03-20T08:17:06.006Z,7.8
2019-03-20T08:18:06.076Z,7.6
2019-03-20T08:19:06.139Z,7.8
2019-03-20T08:20:06.233Z,7.8
2019-03-20T08:21:06.225Z,7.7
2019-03-20T08:22:06.309Z,7.8
2019-03-20T08:23:06.312Z,7.8
2019-03-20T08:24:06.386Z,7.8
2019-03-20T08:25:06.486Z,8.1
2019-03-20T08:26:06.571Z,8.3
2019-03-20T08:27:06.582Z,8.1
2019-03-20T08:28:06.607Z,8.2
2019-03-20T08:29:06.704Z,8.4
2019-03-20T08:30:06.760Z,9
2019-03-20T08:31:06.773Z,8.9
2019-03-20T08:32:06.856Z,8.7
2019-03-20T08:33:06.902Z,9
2019-03-20T08:34:06.942Z,8.9
2019-03-20T08:35:07.029Z,8.5
2019-03-20T08:36:07.083Z,8.5
2019-03-20T08:37:07.153Z,8.5
2019-03-20T08:38:13.966Z,8.3
2019-03-20T08:39:07.246Z,8.5
2019-03-20T08:40:07.403Z,8.7
2019-03-20T08:41:07.373Z,9.1
2019-03-20T08:42:07.371Z,9.1
2019-03-20T08:43:07.440Z,9.1
2019-03-20T08:44:07.488Z,9
2019-03-20T08:45:07.529Z,9
2019-03-20T08:46:07.654Z,9
2019-03-20T08:47:07.657Z,9.3
2019-03-20T08:48:07.731Z,9.3
2019-03-20T08:49:07.820Z,9.3
2019-03-20T08:50:07.881Z,9.5
2019-03-20T08:51:07.855Z,9.6
2019-03-20T08:52:07.941Z,9.7
2019-03-20T08:53:07.945Z,9.6
2019-03-20T08:54:08.024Z,9.2
2019-03-20T08:55:08.062Z,9.3
2019-03-20T08:56:08.130Z,9.1
2019-03-20T08:57:08.178Z,9.2
2019-03-20T08:58:08.258Z,9.3
2019-03-20T08:59:08.288Z,9.2
2019-03-20T09:00:08.356Z,9.1
2019-03-20T09:01:08.455Z,9.1
2019-03-20T09:02:08.544Z,9.3
2019-03-20T09:03:08.529Z,9.4
2019-03-20T09:04:08.563Z,9.8
2019-03-20T09:05:08.592Z,10.3
2019-03-20T09:06:08.662Z,10.2
2019-03-20T09:07:08.772Z,10.2
2019-03-20T09:08:08.872Z,10
2019-03-20T09:09:08.879Z,9.9
2019-03-20T09:10:08.919Z,10.2
2019-03-20T09:11:08.953Z,10.2
2019-03-20T09:12:09.051Z,10.4
2019-03-20T09:13:09.088Z,10.3
2019-03-20T09:14:09.139Z,10.7
2019-03-20T09:15:09.182Z,10.2
2019-03-20T09:16:09.300Z,10.8
2019-03-20T09:17:09.418Z,10.9
2019-03-20T09:18:09.348Z,11.1
2019-03-20T09:19:09.404Z,11.2
2019-03-20T09:20:09.648Z,11.1
2019-03-20T09:21:09.515Z,11.1
2019-03-20T09:22:09.591Z,11.4
2019-03-20T09:23:09.586Z,11.3
2019-03-20T09:24:09.685Z,11.3
2019-03-20T09:25:09.903Z,11.4
2019-03-20T09:26:09.735Z,11.5
2019-03-20T09:27:09.832Z,11.6
2019-03-20T09:28:09.870Z,11.6
2019-03-20T09:30:09.976Z,11.7
2019-03-20T09:31:10.027Z,11.8
2019-03-20T09:32:10.088Z,11.7
2019-03-20T09:33:10.144Z,11.3
2019-03-20T09:34:10.184Z,11.2
2019-03-20T09:35:10.254Z,11.1
2019-03-20T09:36:10.280Z,11.2
2019-03-20T09:37:10.392Z,11
2019-03-20T09:38:10.441Z,11.3
2019-03-20T09:39:10.702Z,11.6
2019-03-20T09:40:10.563Z,11.8
2019-03-20T09:41:10.625Z,11.9
2019-03-20T09:42:10.697Z,11.8
2019-03-20T09:43:10.731Z,11.2
2019-03-20T09:44:10.803Z,11.4
2019-03-20T09:45:10.875Z,11.4
2019-03-20T09:46:10.873Z,11.7
2019-03-20T09:47:11.251Z,11.5
2019-03-20T09:48:10.974Z,11.4
2019-03-20T09:49:11.052Z,11.6
2019-03-20T09:50:11.121Z,11.7
2019-03-20T09:51:11.185Z,11.8
2019-03-20T09:52:11.271Z,11.5
2019-03-20T09:53:11.364Z,11.3
2019-03-20T09:54:11.378Z,11.3
2019-03-20T09:55:11.443Z,11.6
2019-03-20T09:56:11.536Z,11.4
2019-03-20T09:57:11.595Z,11.4
2019-03-20T09:58:12.089Z,11.3
2019-03-20T09:59:11.702Z,11.2
2019-03-20T10:00:11.780Z,11
2019-03-20T10:01:11.821Z,11.1
2019-03-20T10:02:11.881Z,11.6
2019-03-20T10:03:11.925Z,11.6
2019-03-20T10:04:12.011Z,11.4
2019-03-20T10:05:12.101Z,11.3
2019-03-20T10:06:12.171Z,11.6
2019-03-20T10:07:12.174Z,11.9
2019-03-20T10:08:12.485Z,11.7
2019-03-20T10:09:12.514Z,11.8
2019-03-20T10:10:12.429Z,11.8
2019-03-20T10:11:12.505Z,11.8
2019-03-20T10:12:12.504Z,11.7
2019-03-20T10:13:12.537Z,11.7
2019-03-20T10:14:12.575Z,11.7
2019-03-20T10:15:12.728Z,11.8
2019-03-20T10:16:12.710Z,11.9
2019-03-20T10:17:12.801Z,11.9
2019-03-20T10:18:12.919Z,12
2019-03-20T10:19:12.977Z,12.2
2019-03-20T10:20:13.306Z,12.4
2019-03-20T10:21:13.025Z,12.5
2019-03-20T10:22:13.279Z,12.4
2019-03-20T10:23:13.115Z,12.3
2019-03-20T10:24:13.176Z,12.6
2019-03-20T10:25:13.260Z,12.7
2019-03-20T10:26:13.292Z,12.8
2019-03-20T10:27:13.335Z,12.9
2019-03-20T10:28:13.407Z,13
2019-03-20T10:29:13.466Z,12.9
2019-03-20T10:30:13.559Z,13
2019-03-20T10:31:13.715Z,13.1
2019-03-20T10:32:13.663Z,13.2
2019-03-20T10:33:13.725Z,13.1
2019-03-20T10:34:13.817Z,13.4
2019-03-20T10:35:13.863Z,13.9
2019-03-20T10:36:13.907Z,13.9
2019-03-20T10:37:14.046Z,13.4
2019-03-20T10:38:14.025Z,13
2019-03-20T10:39:14.152Z,13.2
2019-03-20T10:40:14.146Z,13.1
2019-03-20T10:41:14.217Z,12.9
2019-03-20T10:42:14.289Z,12.9
2019-03-20T10:43:14.305Z,12.9
2019-03-20T10:44:14.364Z,13
2019-03-20T10:45:14.458Z,13.2
2019-03-20T10:46:14.424Z,13
2019-03-20T10:47:14.525Z,12.7
2019-03-20T10:48:14.550Z,12.7
2019-03-20T10:49:14.601Z,12.7
2019-03-20T10:50:14.669Z,12.7
2019-03-20T10:51:14.729Z,12.8
2019-03-20T10:52:14.778Z,12.6
2019-03-20T10:53:14.996Z,12.6
2019-03-20T10:54:16.558Z,12.4
2019-03-20T10:55:15.115Z,12.4
2019-03-20T10:56:15.016Z,12.3
2019-03-20T10:57:15.060Z,12.4
2019-03-20T10:58:15.134Z,12.5
2019-03-20T10:59:15.343Z,12.5
2019-03-20T11:00:15.245Z,12.6
2019-03-20T11:01:15.325Z,12.8
2019-03-20T11:02:15.370Z,12.9
2019-03-20T11:03:15.431Z,12.8
2019-03-20T11:04:15.488Z,12.7
2019-03-20T11:05:15.559Z,12.5
2019-03-20T11:06:15.635Z,12.6
2019-03-20T11:07:15.714Z,12.5
2019-03-20T11:08:15.805Z,12.5
2019-03-20T11:09:18.402Z,12.5
2019-03-20T11:10:15.884Z,12.6
2019-03-20T11:11:26.454Z,12.9
2019-03-20T11:12:15.958Z,12.8
2019-03-20T11:13:16.113Z,12.9
2019-03-20T11:14:16.054Z,12.8
2019-03-20T11:15:16.836Z,12.8
2019-03-20T11:16:16.201Z,12.8
2019-03-20T11:17:16.231Z,12.9
2019-03-20T11:18:16.306Z,13
2019-03-20T11:19:16.352Z,13
2019-03-20T11:20:16.391Z,13.2
2019-03-20T11:21:16.456Z,13.1
2019-03-20T11:22:18.841Z,13.3
2019-03-20T11:23:16.551Z,13
2019-03-20T11:24:16.612Z,13
2019-03-20T11:25:16.870Z,12.9
2019-03-20T11:26:16.707Z,12.6
2019-03-20T11:27:16.856Z,12.5
2019-03-20T11:28:16.849Z,12.7
2019-03-20T11:29:21.406Z,12.8
2019-03-20T11:30:17.886Z,12.5
2019-03-20T11:31:17.044Z,12.3
2019-03-20T11:32:17.146Z,12.3
2019-03-20T11:33:17.171Z,12.4
2019-03-20T11:34:17.230Z,12.8
2019-03-20T11:35:17.268Z,12.6
2019-03-20T11:36:17.315Z,12.5
2019-03-20T11:37:17.383Z,12.8
2019-03-20T11:38:17.450Z,13
2019-03-20T11:39:28.875Z,13.2
2019-03-20T11:40:17.576Z,13
2019-03-20T11:41:17.670Z,12.8
2019-03-20T11:42:17.850Z,12.9
2019-03-20T11:43:17.790Z,12.8
2019-03-20T11:44:17.833Z,12.7
2019-03-20T11:45:18.109Z,12.6
2019-03-20T11:46:18.092Z,12.5
2019-03-20T11:47:18.037Z,12.6
2019-03-20T11:48:18.117Z,12.6
2019-03-20T11:49:18.138Z,12.5
2019-03-20T11:50:18.388Z,12.3
2019-03-20T11:51:18.305Z,12.2
2019-03-20T11:52:18.346Z,12.3
2019-03-20T11:53:18.400Z,12.3
2019-03-20T11:54:18.473Z,12.3
2019-03-20T11:55:18.723Z,12.4
2019-03-20T11:56:18.839Z,12.4
2019-03-20T11:57:21.453Z,12.5
2019-03-20T11:58:18.787Z,12.4
2019-03-20T11:59:18.798Z,12.4
2019-03-20T12:00:19.028Z,12.5
2019-03-20T12:01:18.881Z,12.4
2019-03-20T12:02:27.612Z,12.4
2019-03-20T12:03:18.981Z,12.4
2019-03-20T12:04:19.055Z,12.6
2019-03-20T12:05:19.565Z,12.7
2019-03-20T12:06:19.225Z,12.8
2019-03-20T12:07:19.273Z,12.7
2019-03-20T12:08:19.315Z,12.8
2019-03-20T12:09:19.396Z,12.7
2019-03-20T12:10:19.397Z,12.6
2019-03-20T12:11:19.735Z,12.6
2019-03-20T12:12:19.549Z,12.6
2019-03-20T12:13:19.588Z,12.5
2019-03-20T12:14:19.640Z,12.4
2019-03-20T12:15:19.740Z,12.4
2019-03-20T12:16:19.904Z,12.4
2019-03-20T12:17:20.305Z,12.7
2019-03-20T12:18:19.861Z,13.2
2019-03-20T12:19:19.921Z,13.3
2019-03-20T12:20:19.931Z,13.1
2019-03-20T12:21:19.971Z,12.9
2019-03-20T12:22:20.043Z,12.9
2019-03-20T12:23:20.133Z,13
2019-03-20T12:24:20.198Z,13
2019-03-20T12:25:20.227Z,13
2019-03-20T12:26:20.319Z,12.9
2019-03-20T12:27:20.374Z,12.7
2019-03-20T12:28:20.467Z,13
2019-03-20T12:29:20.482Z,13.5
2019-03-20T12:30:20.542Z,13.3
2019-03-20T12:31:20.608Z,13.2
2019-03-20T12:32:20.644Z,13.1
2019-03-20T12:33:20.672Z,13.2
2019-03-20T12:34:20.742Z,13.3
2019-03-20T12:35:20.792Z,13.4
2019-03-20T12:36:20.847Z,13.6
2019-03-20T12:37:20.935Z,13.8
2019-03-20T12:38:20.993Z,13.7
2019-03-20T12:39:21.049Z,13.9
2019-03-20T12:40:21.102Z,14
2019-03-20T12:41:21.170Z,13.8
2019-03-20T12:42:21.203Z,13.8
2019-03-20T12:43:21.363Z,13.6
2019-03-20T12:44:21.387Z,13.2
2019-03-20T12:45:21.431Z,13.3
2019-03-20T12:46:21.487Z,13.3
2019-03-20T12:47:21.582Z,13.4
2019-03-20T12:48:21.598Z,13.5
2019-03-20T12:49:21.639Z,13.6
2019-03-20T12:50:21.670Z,13.6
2019-03-20T12:51:21.742Z,13.9
2019-03-20T12:52:21.783Z,14.2
2019-03-20T12:53:21.837Z,13.9
2019-03-20T12:54:21.927Z,13.4
2019-03-20T12:55:21.954Z,13.4
2019-03-20T12:56:22.040Z,13.6
2019-03-20T12:57:22.074Z,13.7
2019-03-20T12:58:22.156Z,13.7
2019-03-20T12:59:22.248Z,13.8
2019-03-20T13:00:22.266Z,14.1
2019-03-20T13:01:22.368Z,14.1
2019-03-20T13:02:22.357Z,14.2
2019-03-20T13:03:22.409Z,14.3
2019-03-20T13:04:22.495Z,14.7
2019-03-20T13:05:22.689Z,15
2019-03-20T13:06:22.597Z,14.4
2019-03-20T13:07:22.664Z,13.7
2019-03-20T13:08:22.689Z,13.9
2019-03-20T13:09:22.764Z,14.2
2019-03-20T13:10:22.833Z,14.7
2019-03-20T13:11:22.880Z,15.4
2019-03-20T13:12:23.008Z,15.5
2019-03-20T13:13:23.031Z,15.2
2019-03-20T13:14:23.073Z,14.9
2019-03-20T13:15:23.154Z,14.3
2019-03-20T13:16:23.162Z,13.9
2019-03-20T13:17:23.304Z,14.2
2019-03-20T13:18:23.253Z,14.5
2019-03-20T13:19:23.805Z,14.5
2019-03-20T13:20:23.404Z,14.2
2019-03-20T13:21:23.430Z,14.1
2019-03-20T13:22:23.506Z,13.9
2019-03-20T13:23:23.739Z,13.8
2019-03-20T13:24:24.104Z,13.8
2019-03-20T13:25:23.767Z,13.8
2019-03-20T13:26:23.760Z,14.2
2019-03-20T13:27:23.820Z,14.4
2019-03-20T13:28:23.829Z,14.8
2019-03-20T13:29:23.874Z,15.1
2019-03-20T13:30:23.935Z,15.3
2019-03-20T13:31:24.003Z,15.4
2019-03-20T13:32:24.125Z,15.5
2019-03-20T13:33:25.852Z,15.8
2019-03-20T13:34:32.958Z,15.7
2019-03-20T13:35:24.238Z,15.6
2019-03-20T13:36:24.329Z,15.9
2019-03-20T13:37:24.323Z,16.1
2019-03-20T13:38:24.412Z,16.2
2019-03-20T13:39:24.479Z,16.1
2019-03-20T13:40:24.509Z,16.2
2019-03-20T13:41:24.560Z,16.2
2019-03-20T13:42:24.617Z,16.1